Du har inga inställningar för hoppväder.nu

Hoppväder.nu

Senast uppdaterat 00:20

UTC-tid

2019-06-25 kl. 22:20


Sol och måne

Solen går upp 3:25 och går ner 23:21 (beräknade cirkatider)
Nästa fullmåne blir om 20 dagar (2019-07-16)

METAR

ESSA (Arlanda, Stockholm)
(30 minuter sedan)
ESSA 252150Z 14005KT CAVOK 15/10 Q1023 NOSIG=



ESSD (Borlänge)
(30 minuter sedan)
ESSD 252150Z AUTO 22005KT 9999 BKN039/// OVC049/// 14/10 Q1023=



EFMA (Mariehamn)
(30 minuter sedan)
EFMA 252150Z AUTO 14004KT CAVOK 15/09 Q1024=



ESOW (Västerås)
(30 minuter sedan)
ESOW 252150Z AUTO VRB02KT 9999 -RA FEW024/// OVC068/// 15/14 Q1023 REDZ=






TAF

ESSA (Arlanda, Stockholm)
(290 minuter sedan)
ESSA 251730Z 2518/2618 13007KT CAVOK PROB40 2519/2524 RA TEMPO 2600/2608 4000 -RA PROB40 2608/2615 4000 SHRA BKN012 BKN060CB=



ESSD (Borlänge)
ESSD



EFMA (Mariehamn)
(118 minuter sedan)
EFMA 252022Z 2521/2606 13004KT CAVOK TEMPO 2600/2604 7000 SHRA=



ESOW (Västerås)
ESOW





Kodnycklar till TAF och METAR






LHP

(Gryttjom är område F2c i Norra delen)

Prognos är inte uppdaterad




Spotting

Hur fungerar spotthjälpen och Vindkartan?

Markvind är ca 0 m/s.



Vindkartan

Senast uppdaterad 00:20




All data kommer från LFV.se